Portada
METAR-TAF:

METAR-TAF

Aeroports :

Pago Pago, Illes Perifèriques Menors dels EUA

latitud: 14-20S, longitud: 170-43W, altitud: 3 m

Observació

L'informe es va fer fa 26 minuts, a les 18:50 UTC
Vent 6 kt amb direcció variable
Temperatura 30°C
Humitat 79%
Pressió 1009 hPa
Visibilitat: 19.3 km
Escasses núvols a una alçada de 1700 ft
Cel ennuvolat a una alçada de 10000 ft
Cel ennuvolat a una alçada de 22000 ft

METAR: NSTU 141850Z VRB06KT 12SM FEW017 BKN100 BKN220 30/26 A2980 RMK SLP093 T02970262

Hora: 08:16 (19:16 UTC)

Pronòstic

L'informe es va fer fa 1 hora i 37 minuts, a les 17:39 UTC
Pronòstic vàlid del 14 a les 18 UTC al 15 a les 18 UTC
Vent 9 kt del Est
Visibilitat: 10 km
Núvols disperses a una alçada de 2000 ft
Núvols disperses a una alçada de 4000 ft
Cel ennuvolat a una alçada de 10000 ft

TAF: NSTU 141739Z 1418/1518 10009KT P6SM SCT020 SCT040 BKN100

Observacions i pronòstics meteorològics de més de 4000 aeroports (METAR i TAF).

Les estacions disponibles són els punts grocs i vermells al mapa.

Posi el ratolí al punt desitjat per veure el nom de l'estació.

Feu clic per veure les observacions i els pronòstics meteorològics.

Per canviar el mapa: feu clic els botons verds amb una creu de color negre per apropar; al botó verd amb un guió per allunyar la imatge; o en les fletxes verdes per a mapes adjacents.


METAR-TAF: